createdAt,value
2023-03-06T00:01:01.704Z,22.10
2023-03-06T00:04:08.596Z,21.40
2023-03-06T00:07:14.850Z,21.50
2023-03-06T00:10:22.620Z,21.70
2023-03-06T00:13:30.727Z,22.20
2023-03-06T00:16:37.648Z,18.70
2023-03-06T00:19:44.033Z,19.60
2023-03-06T00:25:55.031Z,18.10
2023-03-06T00:32:06.142Z,18.30
2023-03-06T00:35:13.555Z,20.90
2023-03-06T00:38:19.768Z,19.40
2023-03-06T00:41:27.166Z,19.70
2023-03-06T00:44:33.460Z,18.80
2023-03-06T00:50:44.058Z,19.30
2023-03-06T00:53:50.258Z,19.70
2023-03-06T00:56:56.452Z,18.90
2023-03-06T01:00:02.930Z,18.70
2023-03-06T01:03:09.181Z,18.40
2023-03-06T01:06:15.808Z,17.20
2023-03-06T01:09:21.987Z,17.60
2023-03-06T01:12:28.275Z,16.10
2023-03-06T01:18:39.032Z,17.80
2023-03-06T01:21:45.663Z,17.70
2023-03-06T01:24:51.957Z,16.70
2023-03-06T01:31:03.299Z,16.00
2023-03-06T01:34:09.662Z,15.10
2023-03-06T01:40:20.452Z,16.30
2023-03-06T01:43:34.055Z,16.50
2023-03-06T01:46:43.051Z,17.90
2023-03-06T01:49:49.280Z,16.90
2023-03-06T01:52:59.144Z,15.40
2023-03-06T01:56:05.869Z,16.60
2023-03-06T01:59:12.630Z,17.50
2023-03-06T02:02:19.471Z,16.10
2023-03-06T02:05:26.137Z,17.90
2023-03-06T02:08:33.018Z,17.20
2023-03-06T02:11:39.173Z,17.10
2023-03-06T02:14:46.339Z,18.50
2023-03-06T02:17:53.989Z,16.40
2023-03-06T02:21:04.307Z,18.10
2023-03-06T02:24:28.067Z,15.80
2023-03-06T02:27:34.796Z,16.00
2023-03-06T02:30:41.870Z,16.40
2023-03-06T02:33:47.956Z,17.10
2023-03-06T02:36:57.037Z,16.70
2023-03-06T02:40:12.390Z,16.40
2023-03-06T02:43:21.428Z,15.20
2023-03-06T02:46:27.785Z,15.30
2023-03-06T02:52:38.533Z,15.70
2023-03-06T02:55:44.669Z,15.80
2023-03-06T02:58:50.937Z,16.60
2023-03-06T03:05:01.770Z,17.10
2023-03-06T03:08:08.699Z,17.20
2023-03-06T03:11:14.986Z,15.00
2023-03-06T03:17:26.118Z,17.40
2023-03-06T03:20:32.368Z,14.20
2023-03-06T03:23:38.580Z,16.30
2023-03-06T03:26:44.885Z,18.80
2023-03-06T03:32:55.933Z,15.50
2023-03-06T03:36:03.323Z,16.00
2023-03-06T03:39:10.240Z,13.90
2023-03-06T03:42:16.472Z,16.00
2023-03-06T03:45:22.819Z,15.50
2023-03-06T03:51:33.985Z,16.20
2023-03-06T03:54:40.582Z,14.50
2023-03-06T03:57:46.846Z,14.30
2023-03-06T04:00:52.989Z,13.90
2023-03-06T04:03:59.305Z,15.10
2023-03-06T04:10:13.383Z,16.70
2023-03-06T04:13:21.089Z,16.80
2023-03-06T04:16:27.445Z,17.20
2023-03-06T04:19:33.792Z,17.40
2023-03-06T04:25:44.590Z,18.30
2023-03-06T04:31:55.367Z,18.30
2023-03-06T04:38:06.248Z,18.00
2023-03-06T04:44:17.252Z,18.50
2023-03-06T04:47:23.492Z,19.00
2023-03-06T04:53:38.845Z,20.10
2023-03-06T04:59:50.716Z,20.20
2023-03-06T05:02:56.953Z,19.20
2023-03-06T05:06:03.503Z,19.20
2023-03-06T05:09:09.675Z,20.00
2023-03-06T05:12:15.884Z,19.20
2023-03-06T05:15:22.301Z,20.00
2023-03-06T05:18:28.521Z,20.30
2023-03-06T05:21:34.779Z,20.60
2023-03-06T05:24:41.868Z,21.70
2023-03-06T05:27:48.130Z,21.80
2023-03-06T05:30:54.438Z,19.90
2023-03-06T05:37:07.032Z,20.60
2023-03-06T05:40:16.283Z,18.90
2023-03-06T05:43:22.588Z,22.80
2023-03-06T05:46:28.748Z,21.40
2023-03-06T05:49:37.335Z,23.50
2023-03-06T05:52:43.964Z,21.40
2023-03-06T05:55:59.282Z,22.00
2023-03-06T05:59:05.528Z,22.40
2023-03-06T06:05:16.997Z,28.60
2023-03-06T06:08:23.525Z,31.00
2023-03-06T06:11:29.884Z,31.80
2023-03-06T06:17:42.470Z,31.30
2023-03-06T06:23:53.308Z,32.00
2023-03-06T06:30:04.718Z,30.60
2023-03-06T06:36:22.434Z,32.40
2023-03-06T06:39:29.025Z,33.50
2023-03-06T06:42:39.814Z,31.70
2023-03-06T06:45:47.630Z,28.90
2023-03-06T06:48:55.438Z,29.00
2023-03-06T06:52:01.980Z,32.10
2023-03-06T06:55:09.764Z,31.90
2023-03-06T06:58:16.179Z,36.80
2023-03-06T07:04:27.410Z,36.40
2023-03-06T07:07:34.969Z,41.70
2023-03-06T07:10:41.230Z,42.40
2023-03-06T07:13:48.592Z,34.70
2023-03-06T07:16:54.907Z,30.80
2023-03-06T07:23:08.751Z,32.70
2023-03-06T07:26:15.213Z,41.80
2023-03-06T07:29:21.475Z,31.80
2023-03-06T07:32:28.031Z,32.90
2023-03-06T07:35:34.620Z,38.60
2023-03-06T07:38:41.074Z,34.60
2023-03-06T07:41:47.403Z,36.70
2023-03-06T07:47:58.180Z,31.80
2023-03-06T07:51:06.249Z,27.70
2023-03-06T07:54:12.644Z,27.90
2023-03-06T08:00:24.535Z,29.50
2023-03-06T08:03:30.794Z,27.10
2023-03-06T08:06:37.183Z,28.30
2023-03-06T08:12:47.966Z,26.70
2023-03-06T08:15:54.306Z,23.60
2023-03-06T08:22:07.135Z,19.00
2023-03-06T08:25:14.985Z,16.10
2023-03-06T08:28:21.222Z,16.80
2023-03-06T08:31:31.408Z,15.80
2023-03-06T08:34:40.019Z,14.60
2023-03-06T08:37:46.281Z,11.20
2023-03-06T08:40:52.455Z,13.00
2023-03-06T08:43:58.816Z,13.00
2023-03-06T08:47:05.581Z,12.60
2023-03-06T08:50:13.528Z,10.40
2023-03-06T08:53:20.618Z,11.90
2023-03-06T08:56:30.675Z,10.90
2023-03-06T08:59:37.547Z,11.60
2023-03-06T09:02:43.818Z,11.60
2023-03-06T09:08:56.151Z,11.10
2023-03-06T09:12:02.407Z,9.60
2023-03-06T09:15:10.443Z,10.40
2023-03-06T09:18:16.723Z,11.30
2023-03-06T09:21:23.715Z,11.10
2023-03-06T09:24:29.999Z,13.30
2023-03-06T09:27:36.314Z,12.40
2023-03-06T09:33:49.472Z,11.10
2023-03-06T09:36:57.561Z,12.30
2023-03-06T09:40:05.742Z,11.00
2023-03-06T09:43:19.154Z,12.80
2023-03-06T09:46:32.345Z,10.40
2023-03-06T09:50:01.979Z,10.40
2023-03-06T09:53:29.931Z,9.80
2023-03-06T09:56:37.454Z,12.40
2023-03-06T09:59:48.962Z,10.30
2023-03-06T10:03:01.138Z,9.30
2023-03-06T10:06:14.605Z,10.20
2023-03-06T10:09:25.853Z,10.20
2023-03-06T10:12:37.559Z,8.80
2023-03-06T10:15:47.612Z,9.70
2023-03-06T10:18:54.831Z,11.70
2023-03-06T10:22:05.454Z,12.30
2023-03-06T10:25:24.316Z,9.80
2023-03-06T10:28:36.458Z,9.20
2023-03-06T10:31:44.887Z,10.20
2023-03-06T10:34:52.107Z,9.50
2023-03-06T10:38:13.028Z,9.10
2023-03-06T10:41:26.425Z,9.80
2023-03-06T10:44:33.705Z,9.70
2023-03-06T10:47:40.474Z,9.60
2023-03-06T10:50:46.798Z,7.60
2023-03-06T10:56:59.456Z,8.50
2023-03-06T11:03:25.307Z,8.20
2023-03-06T11:06:40.348Z,8.00
2023-03-06T11:10:00.156Z,8.40
2023-03-06T11:13:20.841Z,7.40
2023-03-06T11:16:30.603Z,7.70
2023-03-06T11:19:37.184Z,9.00
2023-03-06T11:22:45.719Z,8.30
2023-03-06T11:25:57.473Z,9.60
2023-03-06T11:29:23.554Z,10.50
2023-03-06T11:32:34.194Z,9.30
2023-03-06T11:35:52.070Z,9.00
2023-03-06T11:38:58.415Z,9.60
2023-03-06T11:42:12.732Z,10.40
2023-03-06T11:45:32.035Z,11.60
2023-03-06T11:48:43.580Z,9.60
2023-03-06T11:51:56.149Z,10.00
2023-03-06T11:55:02.329Z,10.00
2023-03-06T11:58:27.904Z,10.10
2023-03-06T12:01:38.416Z,9.40
2023-03-06T12:04:53.147Z,9.20
2023-03-06T12:08:07.488Z,10.20
2023-03-06T12:11:21.981Z,11.00
2023-03-06T12:14:45.734Z,10.70
2023-03-06T12:18:03.388Z,10.20
2023-03-06T12:21:12.714Z,10.20
2023-03-06T12:24:31.829Z,10.20
2023-03-06T12:27:49.914Z,10.30
2023-03-06T12:31:35.276Z,9.80
2023-03-06T12:38:08.038Z,10.50
2023-03-06T12:41:29.939Z,10.50
2023-03-06T12:44:59.466Z,9.90
2023-03-06T12:48:11.843Z,12.60
2023-03-06T12:51:22.107Z,11.00
2023-03-06T12:54:31.604Z,9.90
2023-03-06T12:57:37.909Z,9.70
2023-03-06T13:04:42.611Z,8.80
2023-03-06T13:08:02.158Z,10.10
2023-03-06T13:11:29.364Z,9.50
2023-03-06T13:14:55.181Z,9.20
2023-03-06T13:18:02.296Z,10.40
2023-03-06T13:21:39.709Z,11.10
2023-03-06T13:24:45.993Z,8.90
2023-03-06T13:31:15.248Z,9.60
2023-03-06T13:34:47.042Z,10.10
2023-03-06T13:37:54.353Z,8.70
2023-03-06T13:41:35.330Z,9.60
2023-03-06T13:44:46.085Z,10.90
2023-03-06T13:51:29.699Z,9.60
2023-03-06T13:54:48.436Z,16.40
2023-03-06T13:58:10.672Z,11.50
2023-03-06T14:01:40.659Z,9.90
2023-03-06T14:04:56.573Z,11.20
2023-03-06T14:08:15.961Z,9.40
2023-03-06T14:11:23.005Z,11.70
2023-03-06T14:14:35.968Z,10.00
2023-03-06T14:17:49.391Z,9.60
2023-03-06T14:20:59.595Z,15.00
2023-03-06T14:24:07.653Z,16.30
2023-03-06T14:27:19.967Z,12.30
2023-03-06T14:30:27.094Z,10.30
2023-03-06T14:33:43.247Z,7.60
2023-03-06T14:39:56.301Z,7.40
2023-03-06T14:43:20.291Z,7.10
2023-03-06T14:46:26.507Z,8.50
2023-03-06T14:49:32.808Z,7.20
2023-03-06T14:52:39.253Z,7.20
2023-03-06T14:55:53.259Z,9.00
2023-03-06T14:59:02.536Z,8.80
2023-03-06T15:02:12.462Z,7.80
2023-03-06T15:05:24.475Z,7.30
2023-03-06T15:08:35.850Z,8.40
2023-03-06T15:12:00.556Z,8.80
2023-03-06T15:15:28.218Z,9.20
2023-03-06T15:18:38.968Z,7.80
2023-03-06T15:21:51.216Z,5.80
2023-03-06T15:25:08.918Z,6.50
2023-03-06T15:28:29.687Z,9.30
2023-03-06T15:31:36.905Z,8.40
2023-03-06T15:34:43.495Z,11.00
2023-03-06T15:37:49.826Z,11.10
2023-03-06T15:44:12.406Z,9.90
2023-03-06T15:47:18.983Z,10.70
2023-03-06T15:50:26.977Z,10.50
2023-03-06T15:53:33.222Z,8.50
2023-03-06T15:56:43.025Z,9.10
2023-03-06T15:59:49.231Z,7.90
2023-03-06T16:02:55.619Z,12.90
2023-03-06T16:06:01.986Z,12.90
2023-03-06T16:12:17.902Z,13.30
2023-03-06T16:15:29.138Z,15.40
2023-03-06T16:18:35.476Z,13.00
2023-03-06T16:21:41.726Z,11.80
2023-03-06T16:24:47.974Z,11.40
2023-03-06T16:31:01.902Z,9.10
2023-03-06T16:37:15.271Z,9.40
2023-03-06T16:40:25.253Z,9.80
2023-03-06T16:43:31.517Z,11.40
2023-03-06T16:46:41.320Z,12.90
2023-03-06T16:49:47.651Z,12.50
2023-03-06T16:55:59.379Z,20.30
2023-03-06T17:02:10.706Z,19.80
2023-03-06T17:05:17.460Z,19.00
2023-03-06T17:08:24.054Z,27.50
2023-03-06T17:11:30.362Z,38.80
2023-03-06T17:17:43.075Z,28.20
2023-03-06T17:20:53.684Z,26.90
2023-03-06T17:24:01.827Z,22.00
2023-03-06T17:27:08.462Z,29.20
2023-03-06T17:30:17.291Z,31.60
2023-03-06T17:33:23.548Z,22.10
2023-03-06T17:39:37.497Z,27.90
2023-03-06T17:42:43.790Z,22.00
2023-03-06T17:45:50.050Z,33.80
2023-03-06T17:52:02.929Z,19.90
2023-03-06T17:55:10.848Z,21.20
2023-03-06T17:58:17.300Z,26.90
2023-03-06T18:01:27.508Z,21.20
2023-03-06T18:04:33.937Z,18.10
2023-03-06T18:07:40.433Z,78.70
2023-03-06T18:10:47.689Z,221.90
2023-03-06T18:13:54.335Z,120.20
2023-03-06T18:17:00.833Z,45.80
2023-03-06T18:20:08.294Z,47.70
2023-03-06T18:23:14.608Z,29.90
2023-03-06T18:29:26.351Z,26.40
2023-03-06T18:32:32.727Z,37.60
2023-03-06T18:38:45.713Z,37.20
2023-03-06T18:41:52.227Z,27.00
2023-03-06T18:44:58.679Z,24.90
2023-03-06T18:51:14.029Z,29.20
2023-03-06T18:54:20.188Z,21.20
2023-03-06T18:57:29.302Z,23.00
2023-03-06T19:00:36.495Z,20.00
2023-03-06T19:03:42.988Z,18.50
2023-03-06T19:06:49.459Z,18.00
2023-03-06T19:13:00.392Z,23.40
2023-03-06T19:19:11.793Z,20.20
2023-03-06T19:25:22.864Z,20.20
2023-03-06T19:28:29.502Z,19.80
2023-03-06T19:31:35.852Z,19.80
2023-03-06T19:37:46.810Z,19.80
2023-03-06T19:44:00.103Z,19.30
2023-03-06T19:47:06.597Z,23.20
2023-03-06T19:53:18.756Z,21.10
2023-03-06T19:59:32.531Z,24.60
2023-03-06T20:02:39.392Z,23.70
2023-03-06T20:05:50.173Z,19.60
2023-03-06T20:08:57.167Z,25.00
2023-03-06T20:12:03.680Z,27.20
2023-03-06T20:15:13.042Z,25.20
2023-03-06T20:18:19.324Z,25.70
2023-03-06T20:21:25.894Z,24.50
2023-03-06T20:24:32.231Z,38.30
2023-03-06T20:27:38.555Z,33.80
2023-03-06T20:33:51.881Z,23.60
2023-03-06T20:36:58.135Z,21.90
2023-03-06T20:40:04.863Z,22.40
2023-03-06T20:43:11.497Z,23.00
2023-03-06T20:46:18.230Z,24.90
2023-03-06T20:49:27.164Z,25.30
2023-03-06T20:52:34.105Z,43.40
2023-03-06T20:55:40.412Z,27.10
2023-03-06T21:01:52.143Z,192.90
2023-03-06T21:05:00.156Z,67.60
2023-03-06T21:08:07.293Z,46.20
2023-03-06T21:11:13.769Z,35.00
2023-03-06T21:14:20.009Z,26.50
2023-03-06T21:17:26.740Z,21.80
2023-03-06T21:20:33.516Z,24.40
2023-03-06T21:23:40.275Z,24.10
2023-03-06T21:26:46.561Z,25.20
2023-03-06T21:29:52.956Z,24.60
2023-03-06T21:32:59.234Z,25.50
2023-03-06T21:36:06.064Z,22.60
2023-03-06T21:39:12.341Z,25.60
2023-03-06T21:42:18.706Z,24.10
2023-03-06T21:48:29.463Z,25.50
2023-03-06T21:54:40.240Z,24.60
2023-03-06T21:57:50.504Z,23.20
2023-03-06T22:00:56.871Z,21.20
2023-03-06T22:07:07.679Z,21.40
2023-03-06T22:10:15.984Z,26.90
2023-03-06T22:13:22.989Z,23.70
2023-03-06T22:16:29.400Z,31.80
2023-03-06T22:19:35.955Z,31.80
2023-03-06T22:22:42.459Z,37.10
2023-03-06T22:25:48.742Z,33.40
2023-03-06T22:28:55.111Z,35.00
2023-03-06T22:32:01.445Z,35.20
2023-03-06T22:38:12.716Z,36.40
2023-03-06T22:44:24.858Z,34.10
2023-03-06T22:47:31.173Z,34.80
2023-03-06T22:53:43.391Z,41.30
2023-03-06T22:56:49.654Z,40.30
2023-03-06T22:59:55.930Z,40.10
2023-03-06T23:06:11.610Z,38.30
2023-03-06T23:09:20.698Z,33.70
2023-03-06T23:12:27.083Z,34.70
2023-03-06T23:18:38.691Z,37.50
2023-03-06T23:21:45.299Z,42.20
2023-03-06T23:24:51.684Z,63.60
2023-03-06T23:27:57.964Z,36.50
2023-03-06T23:34:13.556Z,38.40
2023-03-06T23:37:19.831Z,46.30
2023-03-06T23:43:30.618Z,39.40
2023-03-06T23:46:37.078Z,36.50
2023-03-06T23:49:43.462Z,38.00
2023-03-06T23:55:54.563Z,42.20
2023-03-06T23:59:00.821Z,43.80
